createdAt,value
2023-02-22T00:00:44.274Z,27.23
2023-02-22T00:03:15.485Z,27.50
2023-02-22T00:05:47.207Z,29.00
2023-02-22T00:08:15.433Z,26.10
2023-02-22T00:10:42.070Z,26.60
2023-02-22T00:13:10.292Z,25.33
2023-02-22T00:15:37.146Z,27.05
2023-02-22T00:18:04.514Z,25.42
2023-02-22T00:20:30.962Z,25.53
2023-02-22T00:22:57.412Z,25.25
2023-02-22T00:25:25.037Z,25.65
2023-02-22T00:27:52.792Z,22.45
2023-02-22T00:30:26.660Z,23.88
2023-02-22T00:32:55.932Z,22.07
2023-02-22T00:35:25.373Z,21.88
2023-02-22T00:37:55.004Z,22.48
2023-02-22T00:40:24.032Z,21.80
2023-02-22T00:42:51.193Z,20.38
2023-02-22T00:45:21.401Z,25.60
2023-02-22T00:47:48.369Z,23.23
2023-02-22T00:50:17.054Z,25.35
2023-02-22T00:52:44.009Z,26.42
2023-02-22T00:55:16.732Z,25.70
2023-02-22T00:57:43.248Z,21.03
2023-02-22T01:00:15.748Z,21.67
2023-02-22T01:02:43.598Z,21.20
2023-02-22T01:05:12.953Z,23.30
2023-02-22T01:07:40.029Z,21.30
2023-02-22T01:10:08.672Z,23.53
2023-02-22T01:12:36.022Z,20.38
2023-02-22T01:15:04.576Z,22.65
2023-02-22T01:17:31.178Z,22.42
2023-02-22T01:19:57.581Z,19.60
2023-02-22T01:22:24.188Z,23.47
2023-02-22T01:24:51.514Z,22.88
2023-02-22T01:27:18.364Z,24.13
2023-02-22T01:29:44.997Z,21.88
2023-02-22T01:32:12.055Z,24.75
2023-02-22T01:34:38.889Z,22.33
2023-02-22T01:37:06.514Z,24.70
2023-02-22T01:39:33.335Z,25.92
2023-02-22T01:42:00.114Z,24.63
2023-02-22T01:44:35.176Z,24.15
2023-02-22T01:47:04.407Z,21.40
2023-02-22T01:49:42.714Z,22.40
2023-02-22T01:52:13.639Z,21.98
2023-02-22T01:54:46.306Z,20.33
2023-02-22T01:57:20.071Z,21.77
2023-02-22T01:59:50.965Z,19.47
2023-02-22T02:02:21.670Z,22.02
2023-02-22T02:04:49.100Z,22.27
2023-02-22T02:07:19.407Z,23.90
2023-02-22T02:09:48.752Z,24.55
2023-02-22T02:12:17.472Z,19.67
2023-02-22T02:14:44.037Z,22.13
2023-02-22T02:17:13.481Z,21.80
2023-02-22T02:19:54.924Z,22.73
2023-02-22T02:22:38.309Z,21.80
2023-02-22T02:25:24.181Z,20.43
2023-02-22T02:28:04.834Z,20.63
2023-02-22T02:30:59.016Z,22.70
2023-02-22T02:33:30.844Z,23.05
2023-02-22T02:36:08.315Z,25.50
2023-02-22T02:38:52.824Z,23.60
2023-02-22T02:41:24.175Z,24.80
2023-02-22T02:44:00.299Z,25.40
2023-02-22T02:46:34.242Z,22.92
2023-02-22T02:49:05.694Z,27.88
2023-02-22T02:51:39.883Z,25.43
2023-02-22T02:54:07.609Z,25.55
2023-02-22T02:56:35.088Z,22.90
2023-02-22T02:59:01.466Z,26.38
2023-02-22T03:02:05.376Z,27.23
2023-02-22T03:04:54.122Z,28.67
2023-02-22T03:07:25.766Z,27.77
2023-02-22T03:10:24.756Z,32.40
2023-02-22T03:13:08.841Z,29.45
2023-02-22T03:15:51.360Z,29.02
2023-02-22T03:18:45.262Z,29.77
2023-02-22T03:21:19.575Z,30.52
2023-02-22T03:24:10.306Z,28.33
2023-02-22T03:27:00.201Z,30.80
2023-02-22T03:29:30.065Z,29.75
2023-02-22T03:32:01.297Z,27.03
2023-02-22T03:34:35.404Z,32.35
2023-02-22T03:37:16.740Z,28.92
2023-02-22T03:39:46.689Z,32.05
2023-02-22T03:42:26.601Z,28.92
2023-02-22T03:44:58.207Z,29.40
2023-02-22T03:47:35.476Z,34.40
2023-02-22T03:50:10.081Z,29.38
2023-02-22T03:52:37.431Z,29.85
2023-02-22T03:55:11.057Z,32.90
2023-02-22T03:57:46.554Z,30.00
2023-02-22T04:00:17.928Z,33.60
2023-02-22T04:02:44.977Z,33.88
2023-02-22T04:05:11.744Z,32.13
2023-02-22T04:07:38.126Z,35.17
2023-02-22T04:10:08.441Z,33.87
2023-02-22T04:12:36.262Z,30.45
2023-02-22T04:15:03.508Z,30.10
2023-02-22T04:17:29.910Z,32.70
2023-02-22T04:19:56.752Z,30.33
2023-02-22T04:22:23.146Z,36.80
2023-02-22T04:24:49.589Z,35.97
2023-02-22T04:27:16.122Z,39.17
2023-02-22T04:29:42.710Z,31.30
2023-02-22T04:32:09.242Z,39.88
2023-02-22T04:34:35.665Z,33.23
2023-02-22T04:37:02.062Z,37.80
2023-02-22T04:39:28.465Z,34.33
2023-02-22T04:41:54.958Z,34.58
2023-02-22T04:44:21.460Z,34.85
2023-02-22T04:46:47.978Z,38.07
2023-02-22T04:49:14.388Z,34.92
2023-02-22T04:51:41.538Z,34.63
2023-02-22T04:54:08.481Z,36.90
2023-02-22T04:56:35.120Z,33.88
2023-02-22T04:59:01.623Z,34.03
2023-02-22T05:01:33.690Z,34.85
2023-02-22T05:04:02.277Z,31.63
2023-02-22T05:06:28.669Z,32.97
2023-02-22T05:08:55.096Z,34.33
2023-02-22T05:11:22.251Z,37.93
2023-02-22T05:13:48.729Z,40.15
2023-02-22T05:16:15.898Z,36.92
2023-02-22T05:18:42.564Z,34.20
2023-02-22T05:21:09.522Z,34.65
2023-02-22T05:23:35.956Z,31.27
2023-02-22T05:26:02.386Z,37.95
2023-02-22T05:28:28.822Z,41.42
2023-02-22T05:30:55.291Z,38.72
2023-02-22T05:33:21.665Z,40.28
2023-02-22T05:35:48.094Z,36.90
2023-02-22T05:38:15.184Z,43.92
2023-02-22T05:40:42.901Z,41.90
2023-02-22T05:43:09.953Z,42.45
2023-02-22T05:45:36.363Z,42.70
2023-02-22T05:48:03.119Z,41.27
2023-02-22T05:50:29.550Z,46.72
2023-02-22T05:52:56.135Z,41.63
2023-02-22T05:55:23.901Z,44.60
2023-02-22T05:57:51.383Z,47.55
2023-02-22T06:00:27.314Z,47.80
2023-02-22T06:02:58.237Z,43.83
2023-02-22T06:05:24.789Z,49.67
2023-02-22T06:07:51.332Z,51.38
2023-02-22T06:10:18.410Z,51.25
2023-02-22T06:12:44.775Z,43.43
2023-02-22T06:15:11.269Z,48.40
2023-02-22T06:17:39.409Z,48.75
2023-02-22T06:20:06.260Z,45.60
2023-02-22T06:22:32.672Z,43.63
2023-02-22T06:24:58.994Z,53.00
2023-02-22T06:27:25.389Z,52.40
2023-02-22T06:29:51.794Z,50.15
2023-02-22T06:32:18.255Z,54.95
2023-02-22T06:34:44.689Z,48.53
2023-02-22T06:37:11.103Z,49.83
2023-02-22T06:39:37.554Z,53.30
2023-02-22T06:42:04.077Z,48.17
2023-02-22T06:44:30.494Z,44.05
2023-02-22T06:46:56.899Z,46.45
2023-02-22T06:49:23.304Z,51.43
2023-02-22T06:51:49.748Z,55.67
2023-02-22T06:54:16.160Z,52.05
2023-02-22T06:56:42.573Z,49.67
2023-02-22T06:59:09.033Z,55.03
2023-02-22T07:01:36.287Z,54.77
2023-02-22T07:04:03.028Z,48.78
2023-02-22T07:06:29.548Z,42.83
2023-02-22T07:08:56.039Z,49.85
2023-02-22T07:11:22.820Z,48.03
2023-02-22T07:13:49.302Z,55.50
2023-02-22T07:16:15.815Z,47.83
2023-02-22T07:18:42.174Z,46.88
2023-02-22T07:21:08.841Z,59.75
2023-02-22T07:23:36.369Z,51.72
2023-02-22T07:26:05.188Z,47.27
2023-02-22T07:28:31.559Z,45.35
2023-02-22T07:30:58.814Z,51.65
2023-02-22T07:33:25.605Z,47.72
2023-02-22T07:35:52.054Z,48.20
2023-02-22T07:38:19.732Z,48.53
2023-02-22T07:40:46.335Z,49.10
2023-02-22T07:43:21.461Z,51.88
2023-02-22T07:45:49.882Z,46.72
2023-02-22T07:48:17.828Z,50.35
2023-02-22T07:50:44.686Z,46.50
2023-02-22T07:53:14.408Z,55.28
2023-02-22T07:55:40.780Z,50.72
2023-02-22T07:58:08.740Z,44.53
2023-02-22T08:00:39.224Z,49.05
2023-02-22T08:03:10.896Z,49.83
2023-02-22T08:05:39.310Z,43.60
2023-02-22T08:08:07.051Z,41.40
2023-02-22T08:10:35.235Z,41.70
2023-02-22T08:13:02.354Z,42.72
2023-02-22T08:15:34.833Z,37.33
2023-02-22T08:18:02.587Z,43.35
2023-02-22T08:20:29.769Z,37.80
2023-02-22T08:22:57.590Z,41.17
2023-02-22T08:25:27.225Z,42.90
2023-02-22T08:27:58.808Z,42.87
2023-02-22T08:30:25.865Z,36.88
2023-02-22T08:32:52.431Z,44.17
2023-02-22T08:35:20.376Z,43.33
2023-02-22T08:37:48.820Z,42.83
2023-02-22T08:40:18.509Z,38.60
2023-02-22T08:42:45.264Z,40.88
2023-02-22T08:45:13.296Z,40.35
2023-02-22T08:47:40.310Z,38.22
2023-02-22T08:50:07.926Z,40.20
2023-02-22T08:52:35.182Z,37.20
2023-02-22T08:55:01.879Z,39.55
2023-02-22T08:57:28.317Z,36.35
2023-02-22T08:59:54.773Z,38.28
2023-02-22T09:02:22.327Z,31.85
2023-02-22T09:04:49.508Z,35.97
2023-02-22T09:07:16.746Z,35.08
2023-02-22T09:09:44.390Z,31.50
2023-02-22T09:12:11.587Z,34.67
2023-02-22T09:14:38.414Z,32.35
2023-02-22T09:17:05.979Z,36.90
2023-02-22T09:19:32.429Z,35.55
2023-02-22T09:22:00.113Z,38.90
2023-02-22T09:24:27.247Z,35.10
2023-02-22T09:26:54.167Z,34.85
2023-02-22T09:29:23.085Z,37.17
2023-02-22T09:31:51.184Z,30.55
2023-02-22T09:34:20.073Z,34.92
2023-02-22T09:36:47.747Z,34.83
2023-02-22T09:39:15.679Z,34.53
2023-02-22T09:41:51.582Z,35.87
2023-02-22T09:44:56.420Z,36.08
2023-02-22T09:47:39.887Z,33.45
2023-02-22T09:50:15.827Z,29.33
2023-02-22T09:52:53.915Z,33.63
2023-02-22T09:55:41.165Z,31.23
2023-02-22T09:58:42.815Z,30.17
2023-02-22T10:01:39.132Z,31.88
2023-02-22T10:04:19.125Z,26.15
2023-02-22T10:07:11.863Z,25.65
2023-02-22T10:09:42.742Z,28.50
2023-02-22T10:12:26.739Z,28.58
2023-02-22T10:15:30.763Z,29.65
2023-02-22T10:18:15.324Z,26.50
2023-02-22T10:21:02.624Z,30.17
2023-02-22T10:23:47.642Z,26.87
2023-02-22T10:26:22.395Z,30.17
2023-02-22T10:29:02.350Z,29.58
2023-02-22T10:31:33.493Z,29.95
2023-02-22T10:34:07.410Z,29.67
2023-02-22T10:36:34.393Z,30.63
2023-02-22T10:39:13.622Z,28.25
2023-02-22T10:41:53.020Z,25.88
2023-02-22T10:44:19.456Z,29.42
2023-02-22T10:46:47.331Z,28.45
2023-02-22T10:49:21.090Z,28.10
2023-02-22T10:52:01.279Z,30.05
2023-02-22T10:54:36.234Z,29.65
2023-02-22T10:57:04.010Z,26.38
2023-02-22T10:59:36.846Z,28.15
2023-02-22T11:02:15.402Z,26.53
2023-02-22T11:04:46.232Z,27.80
2023-02-22T11:07:33.637Z,29.85
2023-02-22T11:10:06.193Z,29.08
2023-02-22T11:12:38.766Z,27.77
2023-02-22T11:15:16.997Z,29.60
2023-02-22T11:17:46.265Z,29.90
2023-02-22T11:20:27.191Z,28.80
2023-02-22T11:22:55.880Z,29.42
2023-02-22T11:25:30.381Z,31.13
2023-02-22T11:28:08.181Z,29.37
2023-02-22T11:30:36.128Z,26.70
2023-02-22T11:33:16.798Z,27.42
2023-02-22T11:35:58.068Z,27.23
2023-02-22T11:38:26.358Z,26.75
2023-02-22T11:41:29.527Z,26.17
2023-02-22T11:44:13.346Z,27.83
2023-02-22T11:46:42.241Z,27.25
2023-02-22T11:49:11.474Z,27.40
2023-02-22T11:51:44.996Z,27.17
2023-02-22T11:54:53.209Z,30.37
2023-02-22T11:58:05.893Z,32.10
2023-02-22T12:01:07.040Z,28.35
2023-02-22T12:04:07.508Z,29.27
2023-02-22T12:07:15.434Z,31.17
2023-02-22T12:09:51.131Z,32.50
2023-02-22T12:12:40.386Z,31.38
2023-02-22T12:15:19.305Z,29.33
2023-02-22T12:18:15.504Z,27.70
2023-02-22T12:21:05.537Z,30.40
2023-02-22T12:23:40.590Z,32.90
2023-02-22T12:26:31.315Z,30.08
2023-02-22T12:29:06.342Z,28.42
2023-02-22T12:31:42.292Z,31.50
2023-02-22T12:34:29.776Z,27.70
2023-02-22T12:37:05.830Z,30.00
2023-02-22T12:39:54.375Z,30.02
2023-02-22T12:42:47.210Z,34.40
2023-02-22T12:45:31.718Z,28.88
2023-02-22T12:48:07.247Z,32.15
2023-02-22T12:50:35.377Z,32.23
2023-02-22T12:53:34.685Z,29.13
2023-02-22T12:56:30.579Z,27.65
2023-02-22T12:59:08.987Z,26.23
2023-02-22T13:01:41.008Z,28.27
2023-02-22T13:04:20.133Z,28.97
2023-02-22T13:07:05.357Z,33.72
2023-02-22T13:10:03.822Z,22.95
2023-02-22T13:12:42.352Z,27.60
2023-02-22T13:15:25.533Z,30.80
2023-02-22T13:18:26.248Z,26.23
2023-02-22T13:21:01.601Z,26.33
2023-02-22T13:23:45.624Z,30.55
2023-02-22T13:26:24.426Z,29.17
2023-02-22T13:29:02.171Z,27.65
2023-02-22T13:31:39.950Z,28.13
2023-02-22T13:34:35.000Z,23.23
2023-02-22T13:37:07.373Z,28.83
2023-02-22T13:40:10.688Z,29.15
2023-02-22T13:43:01.263Z,28.40
2023-02-22T13:45:27.785Z,25.37
2023-02-22T13:48:13.487Z,26.83
2023-02-22T13:51:01.306Z,26.05
2023-02-22T13:53:32.927Z,26.98
2023-02-22T13:56:01.159Z,30.48
2023-02-22T13:58:27.859Z,29.30
2023-02-22T14:00:59.418Z,30.83
2023-02-22T14:03:36.050Z,26.15
2023-02-22T14:06:04.602Z,26.45
2023-02-22T14:08:36.625Z,27.00
2023-02-22T14:11:15.223Z,23.90
2023-02-22T14:13:55.620Z,25.73
2023-02-22T14:16:26.179Z,27.38
2023-02-22T14:19:25.179Z,22.45
2023-02-22T14:22:06.698Z,25.58
2023-02-22T14:25:02.539Z,21.83
2023-02-22T14:27:40.233Z,22.15
2023-02-22T14:30:07.587Z,24.83
2023-02-22T14:32:35.380Z,20.55
2023-02-22T14:35:25.475Z,24.02
2023-02-22T14:37:55.297Z,25.13
2023-02-22T14:40:26.438Z,22.13
2023-02-22T14:43:03.871Z,23.98
2023-02-22T14:45:34.122Z,23.23
2023-02-22T14:48:42.925Z,21.15
2023-02-22T14:51:22.334Z,19.73
2023-02-22T14:53:54.245Z,25.95
2023-02-22T14:56:44.057Z,24.08
2023-02-22T14:59:18.516Z,22.50
2023-02-22T15:02:01.675Z,20.77
2023-02-22T15:04:32.402Z,20.67
2023-02-22T15:07:01.177Z,21.55
2023-02-22T15:09:32.956Z,17.55
2023-02-22T15:12:04.026Z,18.90
2023-02-22T15:14:37.498Z,20.65
2023-02-22T15:17:12.427Z,20.07
2023-02-22T15:19:41.699Z,20.60
2023-02-22T15:22:22.464Z,19.83
2023-02-22T15:25:03.374Z,24.85
2023-02-22T15:27:30.026Z,21.30
2023-02-22T15:30:05.009Z,20.57
2023-02-22T15:32:36.162Z,18.10
2023-02-22T15:35:19.179Z,19.90
2023-02-22T15:37:47.214Z,19.23
2023-02-22T15:40:20.850Z,24.25
2023-02-22T15:42:52.917Z,20.77
2023-02-22T15:45:22.090Z,20.08
2023-02-22T15:47:49.699Z,26.05
2023-02-22T15:50:28.248Z,25.92
2023-02-22T15:53:06.720Z,21.55
2023-02-22T15:55:38.169Z,26.17
2023-02-22T15:58:28.731Z,19.15
2023-02-22T16:01:02.448Z,19.70
2023-02-22T16:03:48.126Z,20.90
2023-02-22T16:06:38.478Z,19.13
2023-02-22T16:09:14.171Z,17.73
2023-02-22T16:11:44.163Z,21.40
2023-02-22T16:14:28.206Z,20.05
2023-02-22T16:17:13.917Z,20.50
2023-02-22T16:19:44.738Z,19.52
2023-02-22T16:22:33.788Z,23.90
2023-02-22T16:25:16.616Z,21.35
2023-02-22T16:28:06.153Z,19.42
2023-02-22T16:30:39.488Z,20.05
2023-02-22T16:33:16.570Z,18.95
2023-02-22T16:35:51.843Z,24.27
2023-02-22T16:38:18.957Z,24.85
2023-02-22T16:40:52.374Z,22.67
2023-02-22T16:43:22.544Z,23.60
2023-02-22T16:45:49.377Z,21.42
2023-02-22T16:48:24.122Z,21.53
2023-02-22T16:50:53.656Z,20.98
2023-02-22T16:53:23.223Z,23.17
2023-02-22T16:55:53.681Z,21.65
2023-02-22T16:58:20.100Z,23.98
2023-02-22T17:00:46.441Z,23.50
2023-02-22T17:03:17.946Z,25.75
2023-02-22T17:05:44.555Z,24.63
2023-02-22T17:08:11.075Z,23.77
2023-02-22T17:10:37.750Z,22.35
2023-02-22T17:13:21.827Z,25.80
2023-02-22T17:15:50.096Z,25.15
2023-02-22T17:18:22.469Z,28.98
2023-02-22T17:20:51.143Z,25.00
2023-02-22T17:23:19.123Z,24.17
2023-02-22T17:25:55.769Z,23.23
2023-02-22T17:28:24.561Z,24.00
2023-02-22T17:30:55.745Z,25.30
2023-02-22T17:33:27.018Z,24.63
2023-02-22T17:35:57.877Z,27.40
2023-02-22T17:38:26.884Z,23.43
2023-02-22T17:40:54.651Z,27.40
2023-02-22T17:43:21.579Z,26.75
2023-02-22T17:45:48.103Z,28.63
2023-02-22T17:48:16.201Z,28.65
2023-02-22T17:50:44.654Z,31.90
2023-02-22T17:53:11.312Z,30.02
2023-02-22T17:55:40.511Z,30.40
2023-02-22T17:58:14.330Z,31.38
2023-02-22T18:00:44.695Z,36.03
2023-02-22T18:03:21.096Z,33.07
2023-02-22T18:05:50.099Z,32.88
2023-02-22T18:08:16.538Z,35.75
2023-02-22T18:10:43.771Z,38.00
2023-02-22T18:13:14.238Z,39.83
2023-02-22T18:15:40.710Z,37.90
2023-02-22T18:18:07.102Z,43.25
2023-02-22T18:20:39.771Z,39.42
2023-02-22T18:23:07.919Z,42.28
2023-02-22T18:25:36.028Z,38.33
2023-02-22T18:28:04.637Z,40.13
2023-02-22T18:30:31.096Z,42.72
2023-02-22T18:32:57.853Z,42.85
2023-02-22T18:35:24.410Z,41.35
2023-02-22T18:37:50.933Z,39.63
2023-02-22T18:40:18.872Z,36.57
2023-02-22T18:42:46.686Z,42.50
2023-02-22T18:45:13.714Z,45.35
2023-02-22T18:47:42.725Z,39.90
2023-02-22T18:50:10.507Z,48.88
2023-02-22T18:52:46.471Z,46.93
2023-02-22T18:55:18.910Z,44.00
2023-02-22T18:57:46.434Z,47.40
2023-02-22T19:00:16.223Z,49.90
2023-02-22T19:02:45.575Z,49.03
2023-02-22T19:05:13.171Z,52.53
2023-02-22T19:07:39.719Z,53.72
2023-02-22T19:10:06.946Z,54.72
2023-02-22T19:12:33.728Z,55.05
2023-02-22T19:15:00.386Z,56.85
2023-02-22T19:17:28.568Z,56.10
2023-02-22T19:19:55.656Z,55.55
2023-02-22T19:22:25.929Z,56.05
2023-02-22T19:24:54.030Z,59.22
2023-02-22T19:27:21.517Z,57.50
2023-02-22T19:29:49.410Z,61.87
2023-02-22T19:32:17.394Z,56.95
2023-02-22T19:34:44.085Z,60.33
2023-02-22T19:37:12.523Z,57.70
2023-02-22T19:39:39.034Z,58.90
2023-02-22T19:42:09.118Z,57.90
2023-02-22T19:44:36.370Z,64.22
2023-02-22T19:47:08.783Z,61.83
2023-02-22T19:49:37.056Z,61.03
2023-02-22T19:52:06.431Z,64.80
2023-02-22T19:54:33.723Z,64.03
2023-02-22T19:57:00.483Z,65.45
2023-02-22T19:59:27.241Z,63.53
2023-02-22T20:01:55.105Z,60.72
2023-02-22T20:04:22.848Z,59.28
2023-02-22T20:06:53.923Z,61.47
2023-02-22T20:09:23.692Z,60.95
2023-02-22T20:11:53.940Z,61.78
2023-02-22T20:14:23.374Z,60.78
2023-02-22T20:16:55.024Z,55.65
2023-02-22T20:19:24.546Z,59.30
2023-02-22T20:21:52.350Z,62.83
2023-02-22T20:24:19.125Z,64.18
2023-02-22T20:26:46.719Z,61.95
2023-02-22T20:29:14.248Z,53.20
2023-02-22T20:31:41.973Z,55.00
2023-02-22T20:34:09.852Z,57.25
2023-02-22T20:36:39.762Z,60.25
2023-02-22T20:39:13.435Z,53.85
2023-02-22T20:41:44.195Z,56.65
2023-02-22T20:44:18.397Z,53.27
2023-02-22T20:46:46.048Z,52.20
2023-02-22T20:49:18.945Z,52.67
2023-02-22T20:51:47.978Z,58.92
2023-02-22T20:54:15.269Z,54.13
2023-02-22T20:56:44.599Z,55.47
2023-02-22T20:59:13.227Z,51.80
2023-02-22T21:01:39.873Z,49.88
2023-02-22T21:04:09.866Z,48.92
2023-02-22T21:06:37.403Z,56.58
2023-02-22T21:09:07.318Z,52.13
2023-02-22T21:11:34.089Z,53.05
2023-02-22T21:14:01.843Z,49.65
2023-02-22T21:16:31.660Z,53.60
2023-02-22T21:19:00.839Z,51.38
2023-02-22T21:21:28.582Z,48.70
2023-02-22T21:23:57.218Z,54.92
2023-02-22T21:26:29.528Z,54.15
2023-02-22T21:28:58.606Z,48.83
2023-02-22T21:31:25.519Z,54.22
2023-02-22T21:33:54.306Z,58.83
2023-02-22T21:36:24.928Z,53.50
2023-02-22T21:38:54.829Z,57.53
2023-02-22T21:41:24.211Z,51.60
2023-02-22T21:43:52.028Z,55.30
2023-02-22T21:46:19.278Z,52.80
2023-02-22T21:48:48.678Z,53.33
2023-02-22T21:51:25.274Z,53.28
2023-02-22T21:53:54.315Z,52.08
2023-02-22T21:56:24.235Z,52.25
2023-02-22T21:59:02.637Z,48.17
2023-02-22T22:01:33.323Z,49.78
2023-02-22T22:04:01.651Z,52.65
2023-02-22T22:06:30.100Z,53.55
2023-02-22T22:08:57.796Z,60.03
2023-02-22T22:11:25.204Z,49.63
2023-02-22T22:13:53.565Z,55.10
2023-02-22T22:16:22.144Z,47.25
2023-02-22T22:18:48.528Z,48.53
2023-02-22T22:21:18.360Z,50.03
2023-02-22T22:23:46.973Z,44.83
2023-02-22T22:26:19.865Z,49.70
2023-02-22T22:28:49.186Z,44.00
2023-02-22T22:31:17.870Z,51.75
2023-02-22T22:33:45.391Z,49.53
2023-02-22T22:36:14.402Z,48.03
2023-02-22T22:38:40.864Z,46.55
2023-02-22T22:41:09.613Z,44.88
2023-02-22T22:43:37.556Z,46.20
2023-02-22T22:46:05.514Z,43.92
2023-02-22T22:48:35.914Z,46.13
2023-02-22T22:51:06.456Z,52.33
2023-02-22T22:53:34.326Z,47.42
2023-02-22T22:56:14.134Z,44.95
2023-02-22T22:58:52.853Z,50.53
2023-02-22T23:01:26.913Z,48.27
2023-02-22T23:04:01.584Z,47.40
2023-02-22T23:06:39.985Z,45.75
2023-02-22T23:09:11.597Z,49.13
2023-02-22T23:11:44.607Z,46.38
2023-02-22T23:14:19.379Z,47.90
2023-02-22T23:16:50.289Z,42.20
2023-02-22T23:19:19.044Z,50.38
2023-02-22T23:21:48.648Z,43.33
2023-02-22T23:24:19.400Z,45.42
2023-02-22T23:26:48.758Z,43.93
2023-02-22T23:29:20.307Z,43.60
2023-02-22T23:31:50.346Z,42.63
2023-02-22T23:34:18.465Z,45.45
2023-02-22T23:36:44.989Z,42.47
2023-02-22T23:39:12.613Z,39.13
2023-02-22T23:41:38.973Z,44.22
2023-02-22T23:44:11.240Z,40.72
2023-02-22T23:46:40.779Z,40.20
2023-02-22T23:49:09.733Z,38.47
2023-02-22T23:51:42.773Z,42.60
2023-02-22T23:54:12.408Z,39.67
2023-02-22T23:56:40.428Z,40.47
2023-02-22T23:59:10.888Z,48.55
